Beulah, Kansas
Current Conditions -  °F | °C
As of 3:35 PM on Wednesday 26 Nov 2014 (Local Time) from KPTS Reporting Station
Overcast Overcast  
Wind Chill: 43°   Ceiling: 6000
Heat Index: 48°   Visibility: 10mi
Dew Point: 29°   Wind: 13mph
Humidity: 48%   Direction: 310°NW
Pressure: 30.12"   Gusts: 23mph
Location:  37.5057°N, 94.9338°W
Report Text: KPTS 262135Z AUTO 31011G20KT 10SM OVC060 09/M02 A3012 RMK AO2 T00891017
Loading
Personal Weather Stations






























Interactive Weather Map New forecast layout! Learn more

10-Day Weather Forecast

Advertisements
Track Severe Weather on mobile